Time;durP1;ratioP1;P1;durP2;ratioP2;P2;SDS_P1;SDS_P2;PMS_P1;PMS_P2;Temp;Humidity;BMP_temperature;BMP_pressure;BME280_temperature;BME280_humidity;BME280_pressure;Samples;Min_cycle;Max_cycle;Signal;HPM_P1;HPM_P2
2022/11/02 00:02:29;;;;;;;51.50;24.63;;;;;;;9.35;100.00;97626.13;5011021;28;20203;-63
2022/11/02 00:04:57;;;;;;;48.17;25.10;;;;;;;9.25;100.00;97623.63;5016496;28;20602;-64
2022/11/02 00:07:25;;;;;;;36.80;21.97;;;;;;;9.27;100.00;97628.75;5018240;28;20199;-62
2022/11/02 00:09:53;;;;;;;32.80;23.00;;;;;;;9.30;100.00;97627.63;4998215;28;20374;-63
2022/11/02 00:12:22;;;;;;;31.50;22.17;;;;;;;9.29;100.00;97634.72;5015815;28;20811;-65
2022/11/02 00:14:50;;;;;;;39.67;21.40;;;;;;;9.27;100.00;97637.50;4992751;28;20811;-61
2022/11/02 00:17:18;;;;;;;40.03;23.47;;;;;;;9.27;100.00;97637.50;4975056;28;21227;-64
2022/11/02 00:19:48;;;;;;;24.20;20.00;;;;;;;9.26;100.00;97637.69;5014843;28;20316;-65
2022/11/02 00:22:16;;;;;;;45.07;22.20;;;;;;;9.23;100.00;97641.47;5017549;28;20309;-65
2022/11/02 00:24:45;;;;;;;33.50;23.17;;;;;;;9.25;100.00;97647.44;4999227;28;20738;-62
2022/11/02 00:27:13;;;;;;;32.30;22.07;;;;;;;9.25;100.00;97651.91;5016325;28;20631;-64
2022/11/02 00:29:41;;;;;;;28.70;21.80;;;;;;;9.24;100.00;97656.34;5016024;28;20527;-62
2022/11/02 00:32:09;;;;;;;32.87;23.83;;;;;;;9.30;100.00;97651.44;4972727;28;20217;-65
2022/11/02 00:34:38;;;;;;;42.57;23.00;;;;;;;9.31;100.00;97659.19;5015538;28;20249;-64
2022/11/02 00:37:07;;;;;;;33.70;23.70;;;;;;;9.33;100.00;97656.38;5017171;28;20207;-63
2022/11/02 00:39:35;;;;;;;29.97;21.20;;;;;;;9.31;100.00;97653.88;5010769;28;20480;-63
2022/11/02 00:42:04;;;;;;;32.03;22.17;;;;;;;9.40;100.00;97662.66;5004348;28;20203;-63
2022/11/02 00:44:32;;;;;;;33.87;23.33;;;;;;;9.38;100.00;97659.34;5014152;28;20203;-63
2022/11/02 00:47:00;;;;;;;38.03;24.17;;;;;;;9.41;100.00;97659.03;4972259;28;20214;-62
2022/11/02 00:49:28;;;;;;;30.40;23.30;;;;;;;9.40;100.00;97652.09;5015715;28;20401;-64
2022/11/02 00:51:56;;;;;;;34.97;23.13;;;;;;;9.31;100.00;97655.72;5014071;28;20400;-64
2022/11/02 00:54:26;;;;;;;29.30;22.73;;;;;;;9.35;100.00;97655.22;5016712;28;20209;-63
2022/11/02 00:56:55;;;;;;;23.47;20.87;;;;;;;9.38;100.00;97660.16;4993162;28;20385;-64
2022/11/02 00:59:23;;;;;;;31.93;21.83;;;;;;;9.31;100.00;97658.38;5017833;28;20563;-65
2022/11/02 01:01:51;;;;;;;31.70;20.83;;;;;;;9.32;100.00;97654.72;5014297;28;20410;-63
2022/11/02 01:04:20;;;;;;;23.67;19.60;;;;;;;9.27;100.00;97658.66;4970684;28;20222;-63
2022/11/02 01:06:48;;;;;;;24.23;19.07;;;;;;;9.30;100.00;97659.34;5012255;28;20931;-63
2022/11/02 01:09:16;;;;;;;27.53;21.00;;;;;;;9.29;100.00;97663.81;5017246;28;20439;-64
2022/11/02 01:11:46;;;;;;;32.00;21.17;;;;;;;9.26;100.00;97662.31;4993435;28;20987;-63
2022/11/02 01:14:14;;;;;;;28.23;20.37;;;;;;;9.21;100.00;97663.81;5014021;28;20211;-67
2022/11/02 01:16:43;;;;;;;40.73;23.50;;;;;;;9.11;100.00;97653.38;5016701;28;21415;-64
2022/11/02 01:19:16;;;;;;;40.83;19.97;;;;;;;9.19;100.00;97655.22;4967522;28;20850;-64
2022/11/02 01:21:44;;;;;;;27.93;19.67;;;;;;;9.17;100.00;97650.06;5015230;28;20227;-64
2022/11/02 01:24:12;;;;;;;27.53;18.93;;;;;;;9.20;100.00;97641.00;5013464;28;20211;-65
2022/11/02 01:26:41;;;;;;;26.13;19.77;;;;;;;9.19;100.00;97645.44;4994154;28;20222;-65
2022/11/02 01:29:10;;;;;;;24.40;18.80;;;;;;;9.23;100.00;97646.75;5015200;28;20501;-65
2022/11/02 01:31:38;;;;;;;32.67;21.60;;;;;;;9.20;100.00;97652.38;5015703;28;20643;-61
2022/11/02 01:34:07;;;;;;;33.97;20.60;;;;;;;9.11;100.00;97632.22;4983634;28;22387;-63
2022/11/02 01:36:35;;;;;;;37.67;18.63;;;;;;;9.21;100.00;97650.59;5008190;28;20325;-64
2022/11/02 01:39:04;;;;;;;24.00;18.80;;;;;;;9.25;100.00;97644.78;5014952;28;20238;-65
2022/11/02 01:41:32;;;;;;;25.47;19.57;;;;;;;9.28;100.00;97638.34;4995153;28;20883;-65
2022/11/02 01:44:02;;;;;;;25.00;19.67;;;;;;;9.24;100.00;97632.56;5014852;28;20203;-61
2022/11/02 01:46:37;;;;;;;22.93;18.87;;;;;;;9.24;100.00;97635.19;5016159;28;20207;-65
2022/11/02 01:49:12;;;;;;;30.30;19.73;;;;;;;9.25;100.00;97639.50;4984395;28;20783;-61
2022/11/02 01:51:43;;;;;;;20.43;18.23;;;;;;;9.22;100.00;97637.19;4960857;28;21539;-65
2022/11/02 01:54:14;;;;;;;21.73;18.67;;;;;;;9.21;100.00;97632.06;4993442;28;20211;-64
2022/11/02 01:56:44;;;;;;;31.93;19.60;;;;;;;9.20;100.00;97639.16;5012756;28;20866;-65
2022/11/02 01:59:15;;;;;;;26.70;18.70;;;;;;;9.16;100.00;97648.41;4991479;28;20230;-64
2022/11/02 02:01:46;;;;;;;28.63;20.90;;;;;;;9.20;100.00;97641.81;5013796;28;20394;-63
2022/11/02 02:04:15;;;;;;;27.17;21.60;;;;;;;9.19;100.00;97640.16;5016104;28;20349;-65
2022/11/02 02:06:44;;;;;;;22.70;19.93;;;;;;;9.18;100.00;97625.28;4969282;28;20732;-63
2022/11/02 02:09:13;;;;;;;23.50;19.90;;;;;;;9.24;100.00;97627.25;4989895;28;20231;-61
2022/11/02 02:11:41;;;;;;;27.70;20.93;;;;;;;9.29;100.00;97636.56;5014739;28;20835;-62
2022/11/02 02:14:11;;;;;;;22.20;19.50;;;;;;;9.27;100.00;97640.16;4992782;28;20238;-64
2022/11/02 02:16:57;;;;;;;21.03;18.37;;;;;;;9.33;100.00;97637.88;5013755;28;20427;-63
2022/11/02 02:19:36;;;;;;;25.30;19.30;;;;;;;9.31;100.00;97635.38;5010719;28;20423;-64
2022/11/02 02:22:16;;;;;;;30.47;19.93;;;;;;;9.23;100.00;97640.66;5012941;28;20217;-64
2022/11/02 02:24:49;;;;;;;21.40;16.20;;;;;;;9.20;100.00;97636.53;5008239;28;22317;-63
2022/11/02 02:27:21;;;;;;;19.30;17.03;;;;;;;9.20;100.00;97641.00;5012378;28;21557;-64
2022/11/02 02:30:03;;;;;;;18.07;16.17;;;;;;;9.10;100.00;97641.16;4993330;28;20207;-64
2022/11/02 02:32:38;;;;;;;20.17;16.57;;;;;;;9.15;100.00;97648.59;5011555;28;20300;-64
2022/11/02 02:35:13;;;;;;;21.47;17.10;;;;;;;9.25;100.00;97651.91;5014602;28;20780;-64
2022/11/02 02:37:47;;;;;;;20.07;17.63;;;;;;;9.23;100.00;97654.69;4967312;28;21444;-64
2022/11/02 02:40:18;;;;;;;25.10;16.87;;;;;;;9.23;100.00;97653.88;5013021;28;20223;-64
2022/11/02 02:42:50;;;;;;;27.33;17.57;;;;;;;9.27;100.00;97657.84;5015175;28;20606;-65
2022/11/02 02:45:22;;;;;;;24.80;15.80;;;;;;;9.27;100.00;97652.56;4990478;28;20214;-62
2022/11/02 02:47:56;;;;;;;21.23;16.73;;;;;;;9.21;100.00;97654.03;5016077;28;20227;-65
2022/11/02 02:50:26;;;;;;;16.47;14.70;;;;;;;9.23;100.00;97656.53;5012117;28;20206;-65
2022/11/02 02:52:55;;;;;;;17.27;15.47;;;;;;;9.25;100.00;97665.13;5016181;28;20294;-66
2022/11/02 02:55:28;;;;;;;17.70;15.83;;;;;;;9.22;100.00;97663.63;4965303;28;20738;-64
2022/11/02 02:57:57;;;;;;;17.50;15.67;;;;;;;9.26;100.00;97661.50;5016183;28;20233;-65
2022/11/02 03:00:26;;;;;;;20.07;15.73;;;;;;;9.12;100.00;97650.56;4986894;28;20737;-64
2022/11/02 03:03:00;;;;;;;16.03;14.40;;;;;;;9.09;100.00;97658.84;5013049;28;20211;-58
2022/11/02 03:05:31;;;;;;;14.57;13.27;;;;;;;9.05;100.00;97654.84;5011377;28;20400;-56
2022/11/02 03:08:02;;;;;;;17.43;14.23;;;;;;;9.03;100.00;97656.81;5014569;28;20453;-58
2022/11/02 03:10:35;;;;;;;16.07;14.37;;;;;;;8.98;100.00;97649.41;4977232;28;20857;-56
2022/11/02 03:13:23;;;;;;;17.03;15.33;;;;;;;8.93;100.00;97651.69;5015219;28;20218;-63
2022/11/02 03:15:58;;;;;;;16.73;13.70;;;;;;;8.98;100.00;97653.84;4996240;28;20769;-63
2022/11/02 03:18:34;;;;;;;15.70;14.10;;;;;;;8.96;100.00;97651.38;5011599;28;20218;-64
2022/11/02 03:21:07;;;;;;;16.93;14.70;;;;;;;8.92;100.00;97655.34;5016841;28;20222;-63
2022/11/02 03:23:38;;;;;;;16.73;14.90;;;;;;;8.95;100.00;97659.44;4971226;28;21017;-62
2022/11/02 03:26:10;;;;;;;16.13;14.37;;;;;;;8.91;100.00;97656.31;5013934;28;20203;-61
2022/11/02 03:28:45;;;;;;;16.83;15.03;;;;;;;8.88;100.00;97653.16;5012861;28;20981;-61
2022/11/02 03:31:19;;;;;;;16.40;14.60;;;;;;;8.76;100.00;97650.84;5006771;28;20203;-64
2022/11/02 03:33:54;;;;;;;16.13;14.37;;;;;;;8.78;100.00;97666.50;5014308;28;20210;-61
2022/11/02 03:36:25;;;;;;;16.17;14.27;;;;;;;8.67;100.00;97663.19;5010452;28;20266;-62
2022/11/02 03:38:56;;;;;;;16.50;14.73;;;;;;;8.62;100.00;97665.47;5013509;28;20556;-63
2022/11/02 03:41:25;;;;;;;15.33;13.10;;;;;;;8.58;100.00;97669.44;4964011;28;20234;-64
2022/11/02 03:43:56;;;;;;;21.17;15.27;;;;;;;8.57;100.00;97674.84;5013780;28;20203;-65
2022/11/02 03:46:25;;;;;;;16.57;14.77;;;;;;;8.55;100.00;97675.03;5006562;28;20590;-63
2022/11/02 03:48:55;;;;;;;16.83;14.70;;;;;;;8.51;100.00;97677.16;4988669;28;20966;-62
2022/11/02 03:51:24;;;;;;;18.07;14.87;;;;;;;8.54;100.00;97670.72;5010920;28;20939;-64
2022/11/02 03:53:58;;;;;;;20.47;14.83;;;;;;;8.58;100.00;97671.22;5010700;28;20773;-64
2022/11/02 03:56:32;;;;;;;21.37;15.70;;;;;;;8.60;100.00;97670.09;4968780;28;20395;-61
2022/11/02 03:59:00;;;;;;;34.40;15.13;;;;;;;8.60;100.00;97674.53;4950975;28;20227;-64
2022/11/02 04:01:31;;;;;;;23.90;15.93;;;;;;;8.52;100.00;97680.59;5004059;28;20233;-63
2022/11/02 04:04:00;;;;;;;21.50;14.97;;;;;;;8.50;100.00;97677.28;5000426;28;20202;-63
2022/11/02 04:06:30;;;;;;;33.90;17.83;;;;;;;8.48;100.00;97666.03;5007678;28;20331;-61
2022/11/02 04:08:58;;;;;;;23.80;16.07;;;;;;;8.51;100.00;97668.38;5014047;28;20593;-62
2022/11/02 04:19:46;;;;;;;41.60;16.47;;;;;;;8.26;100.00;97681.47;5014954;28;20622;-61
2022/11/02 04:25:21;;;;;;;29.70;16.70;;;;;;;8.16;100.00;97686.84;5010843;28;20203;-67
2022/11/02 04:27:51;;;;;;;22.97;14.57;;;;;;;8.19;100.00;97697.09;5006390;28;20230;-62
2022/11/02 04:30:21;;;;;;;22.67;15.43;;;;;;;8.21;100.00;97686.38;4937820;28;20433;-62
2022/11/02 04:35:37;;;;;;;20.90;14.63;;;;;;;8.28;100.00;97695.31;4941329;28;20226;-65
2022/11/02 04:41:40;;;;;;;27.83;15.37;;;;;;;8.34;100.00;97705.25;4961281;28;20224;-64
2022/11/02 04:43:40;;;;;;;20.27;14.67;;;;;;;8.28;100.00;97697.13;4967898;28;20209;-66
2022/11/02 04:46:08;;;;;;;26.33;15.07;;;;;;;8.23;100.00;97703.69;4920373;28;20334;-66
2022/11/02 04:48:37;;;;;;;21.63;14.17;;;;;;;8.23;100.00;97702.88;4964090;28;20228;-67
2022/11/02 04:51:06;;;;;;;31.50;16.07;;;;;;;8.21;100.00;97689.84;4947016;28;20197;-67
2022/11/02 04:53:35;;;;;;;30.83;16.73;;;;;;;8.22;100.00;97698.59;4947451;28;20211;-66
2022/11/02 04:56:03;;;;;;;20.07;14.73;;;;;;;8.23;100.00;97693.16;4964882;28;21332;-66
2022/11/02 04:58:31;;;;;;;17.07;14.63;;;;;;;8.25;100.00;97693.81;4949145;28;20228;-66
2022/11/02 05:01:04;;;;;;;21.50;15.07;;;;;;;8.20;100.00;97687.38;4922519;28;20409;-64
2022/11/02 05:03:33;;;;;;;25.60;16.40;;;;;;;8.25;100.00;97695.66;4939830;28;20244;-64
2022/11/02 05:06:03;;;;;;;29.00;19.30;;;;;;;8.30;100.00;97690.72;4962588;28;20939;-62
2022/11/02 05:08:31;;;;;;;21.03;13.93;;;;;;;8.24;100.00;97696.63;4921616;28;20243;-65
2022/11/02 05:11:00;;;;;;;19.27;15.73;;;;;;;8.21;100.00;97703.03;4963992;28;21590;-62
2022/11/02 05:13:28;;;;;;;17.47;13.90;;;;;;;8.17;100.00;97704.34;4942836;28;20880;-63
2022/11/02 05:15:57;;;;;;;15.60;14.10;;;;;;;8.16;100.00;97699.22;4922293;28;20223;-65
2022/11/02 05:18:25;;;;;;;19.20;14.93;;;;;;;8.19;100.00;97693.63;4959740;28;20844;-63
2022/11/02 05:20:55;;;;;;;19.67;15.43;;;;;;;8.19;100.00;97702.38;4964260;28;20224;-61
2022/11/02 05:23:25;;;;;;;27.80;17.67;;;;;;;8.18;100.00;97689.34;4941640;28;21737;-63
2022/11/02 05:25:54;;;;;;;43.87;17.20;;;;;;;8.16;100.00;97691.31;4964932;28;20382;-64
2022/11/02 05:28:22;;;;;;;28.33;15.83;;;;;;;8.15;100.00;97700.22;4945541;28;20232;-63
2022/11/02 05:30:50;;;;;;;27.80;16.43;;;;;;;8.05;100.00;97690.56;4920715;28;20223;-63
2022/11/02 05:33:19;;;;;;;16.80;14.70;;;;;;;8.02;100.00;97698.78;4962788;28;20716;-65
2022/11/02 05:35:47;;;;;;;16.10;14.20;;;;;;;8.05;100.00;97711.69;4961956;28;20793;-65
2022/11/02 05:38:16;;;;;;;17.00;15.20;;;;;;;8.05;100.00;97716.13;4959257;28;20239;-68
2022/11/02 05:40:51;;;;;;;15.67;12.87;;;;;;;7.98;100.00;97721.19;4956815;28;20215;-66
2022/11/02 05:43:20;;;;;;;16.80;13.67;;;;;;;7.98;100.00;97718.56;4956319;28;20200;-64
2022/11/02 05:45:53;;;;;;;15.23;13.53;;;;;;;8.06;100.00;97723.06;4927288;28;20216;-66
2022/11/02 05:48:22;;;;;;;16.90;13.67;;;;;;;8.01;100.00;97725.34;4963589;28;20232;-64
2022/11/02 05:50:50;;;;;;;17.00;13.23;;;;;;;8.01;100.00;97731.44;4964807;28;20209;-65
2022/11/02 05:53:18;;;;;;;15.63;13.83;;;;;;;7.96;100.00;97731.94;4966897;28;20677;-64
2022/11/02 05:55:48;;;;;;;14.47;13.17;;;;;;;7.95;100.00;97729.44;4944866;28;20384;-64
2022/11/02 05:58:16;;;;;;;16.20;12.43;;;;;;;7.86;100.00;97738.25;4962575;28;20699;-64
2022/11/02 06:00:44;;;;;;;19.33;14.00;;;;;;;7.90;100.00;97744.91;4901474;28;20492;-63
2022/11/02 06:03:12;;;;;;;15.27;13.70;;;;;;;7.88;100.00;97749.50;4962337;28;20229;-63
2022/11/02 06:05:40;;;;;;;14.90;13.27;;;;;;;7.79;100.00;97743.31;4912888;28;21023;-63
2022/11/02 06:08:09;;;;;;;15.23;12.90;;;;;;;7.81;100.00;97736.91;4963987;28;20243;-62
2022/11/02 06:10:37;;;;;;;14.43;12.97;;;;;;;7.85;100.00;97745.34;4952255;28;20215;-62
2022/11/02 06:13:07;;;;;;;14.60;12.97;;;;;;;7.88;100.00;97758.22;4963847;28;20362;-62
2022/11/02 06:15:35;;;;;;;13.77;12.00;;;;;;;7.91;100.00;97762.38;4921535;28;20409;-62
2022/11/02 06:18:03;;;;;;;14.40;12.90;;;;;;;7.91;100.00;97760.56;4961579;28;20221;-62
2022/11/02 06:20:31;;;;;;;15.83;13.93;;;;;;;7.85;100.00;97758.53;4944985;28;21383;-65
2022/11/02 06:23:00;;;;;;;14.97;13.30;;;;;;;7.78;100.00;97754.84;4929765;28;20803;-64
2022/11/02 06:25:29;;;;;;;14.77;13.20;;;;;;;7.79;100.00;97752.06;4960306;28;21970;-62
2022/11/02 06:27:57;;;;;;;14.93;13.43;;;;;;;7.74;100.00;97758.78;4963920;28;20813;-60
2022/11/02 06:30:27;;;;;;;15.40;13.80;;;;;;;7.76;100.00;97770.81;4961813;28;20512;-64
2022/11/02 06:32:55;;;;;;;16.83;13.53;;;;;;;7.72;100.00;97766.81;4945927;28;20209;-63
2022/11/02 06:35:23;;;;;;;15.53;13.87;;;;;;;7.78;100.00;97755.69;4941472;28;20217;-65
2022/11/02 06:37:51;;;;;;;19.93;14.57;;;;;;;7.85;100.00;97763.81;4900633;28;20220;-65
2022/11/02 06:40:20;;;;;;;14.07;12.67;;;;;;;7.88;100.00;97762.69;4946475;28;20212;-66
2022/11/02 06:42:55;;;;;;;14.87;12.73;;;;;;;7.97;100.00;97774.97;4960863;28;20229;-63
2022/11/02 06:45:45;;;;;;;15.90;13.70;;;;;;;8.02;100.00;97777.16;4962587;28;20208;-64
2022/11/02 06:48:13;;;;;;;14.87;13.50;;;;;;;8.04;100.00;97778.63;4944496;28;20713;-62
2022/11/02 06:50:42;;;;;;;14.07;12.20;;;;;;;7.99;100.00;97780.91;4962805;28;21149;-61
2022/11/02 06:53:10;;;;;;;14.97;12.57;;;;;;;8.01;100.00;97784.22;4900332;28;20330;-59
2022/11/02 06:55:38;;;;;;;12.33;11.20;;;;;;;8.04;100.00;97794.47;4963035;28;20209;-63
2022/11/02 06:58:06;;;;;;;13.57;11.83;;;;;;;8.19;100.00;97797.41;4962088;28;20346;-63
2022/11/02 07:00:34;;;;;;;14.10;12.67;;;;;;;8.26;100.00;97795.78;4963871;28;20216;-63
2022/11/02 07:03:06;;;;;;;13.53;12.17;;;;;;;8.20;100.00;97808.78;4941725;28;20322;-63
2022/11/02 07:05:35;;;;;;;12.73;11.43;;;;;;;8.05;100.00;97803.22;4962685;28;20565;-65
2022/11/02 07:08:05;;;;;;;10.67;9.67;;;;;;;7.96;100.00;97802.31;4899345;28;21786;-61
2022/11/02 07:10:34;;;;;;;9.27;8.47;;;;;;;7.94;100.00;97810.38;4954958;28;20265;-61
2022/11/02 07:13:02;;;;;;;10.47;9.57;;;;;;;7.96;100.00;97816.38;4958407;28;20288;-61
2022/11/02 07:15:31;;;;;;;10.33;9.33;;;;;;;7.94;100.00;97820.13;4962324;28;20213;-63
2022/11/02 07:17:59;;;;;;;10.20;8.67;;;;;;;7.96;100.00;97818.16;4941051;28;20924;-60
2022/11/02 07:20:29;;;;;;;12.03;9.63;;;;;;;7.87;100.00;97822.53;4963894;28;20208;-61
2022/11/02 07:22:58;;;;;;;10.90;9.27;;;;;;;7.87;100.00;97824.34;4943045;28;20230;-62
2022/11/02 07:25:29;;;;;;;9.53;8.73;;;;;;;7.75;100.00;97827.19;4920244;28;20220;-65
2022/11/02 07:27:59;;;;;;;11.23;10.20;;;;;;;7.75;100.00;97824.56;4960616;28;20896;-65
2022/11/02 07:30:27;;;;;;;10.70;9.67;;;;;;;7.79;100.00;97817.19;4964052;28;20208;-62
2022/11/02 07:32:55;;;;;;;11.63;9.37;;;;;;;7.80;100.00;97814.41;4960455;28;20286;-64
2022/11/02 07:35:24;;;;;;;12.50;9.23;;;;;;;7.86;100.00;97820.06;4939470;28;20436;-63
2022/11/02 07:37:57;;;;;;;9.87;8.97;;;;;;;7.97;100.00;97819.81;4964084;28;20221;-62
2022/11/02 07:40:26;;;;;;;10.33;9.43;;;;;;;7.98;100.00;97816.19;4909429;28;20311;-63
2022/11/02 07:42:55;;;;;;;10.83;9.97;;;;;;;8.12;100.00;97822.75;4963304;28;20815;-64
2022/11/02 07:45:24;;;;;;;10.37;9.47;;;;;;;8.21;100.00;97829.75;4941921;28;20238;-65
2022/11/02 07:47:52;;;;;;;10.30;9.40;;;;;;;8.27;100.00;97828.31;4962909;28;20228;-65
2022/11/02 07:50:22;;;;;;;9.17;8.23;;;;;;;8.48;100.00;97822.69;4942828;28;20213;-65
2022/11/02 07:52:51;;;;;;;8.43;7.63;;;;;;;8.73;100.00;97829.97;4941163;28;20438;-62
2022/11/02 07:55:22;;;;;;;8.93;8.03;;;;;;;8.81;100.00;97828.22;4901506;28;20629;-66
2022/11/02 07:57:54;;;;;;;8.80;7.90;;;;;;;8.75;100.00;97835.91;4947218;28;21127;-64
2022/11/02 08:00:22;;;;;;;8.20;7.40;;;;;;;8.73;100.00;97832.59;4961044;28;20356;-62
2022/11/02 08:02:54;;;;;;;8.33;7.63;;;;;;;8.81;100.00;97830.00;4961788;28;20613;-66
2022/11/02 08:05:23;;;;;;;9.10;7.80;;;;;;;8.85;100.00;97841.09;4941370;28;20246;-65
2022/11/02 08:07:57;;;;;;;6.23;5.77;;;;;;;8.81;100.00;97830.00;4961707;28;20789;-63
2022/11/02 08:10:27;;;;;;;6.70;6.10;;;;;;;8.67;100.00;97837.53;4901541;28;20230;-64
2022/11/02 08:12:56;;;;;;;5.57;5.20;;;;;;;8.77;100.00;97833.94;4911610;28;20673;-64
2022/11/02 08:15:24;;;;;;;7.20;6.60;;;;;;;8.84;100.00;97845.53;4938394;28;20600;-63
2022/11/02 08:18:00;;;;;;;7.10;6.50;;;;;;;8.83;100.00;97849.16;4964148;28;20441;-64
2022/11/02 08:20:29;;;;;;;8.53;7.70;;;;;;;8.89;100.00;97850.38;4945921;28;20552;-64
2022/11/02 08:22:58;;;;;;;8.33;7.70;;;;;;;9.21;100.00;97851.53;4967329;28;20228;-63
2022/11/02 08:25:27;;;;;;;8.10;7.40;;;;;;;9.25;100.00;97847.56;4947214;28;20786;-64
2022/11/02 08:27:57;;;;;;;8.70;7.80;;;;;;;8.97;100.00;97845.97;4924856;28;20608;-61
2022/11/02 08:30:25;;;;;;;8.03;7.37;;;;;;;9.30;100.00;97842.63;4961274;28;20204;-62
2022/11/02 08:32:54;;;;;;;8.67;7.87;;;;;;;9.42;100.00;97845.81;4965019;28;20455;-61
2022/11/02 08:35:24;;;;;;;7.53;6.80;;;;;;;9.99;100.00;97836.34;4947259;28;21530;-60
2022/11/02 08:37:55;;;;;;;8.73;8.03;;;;;;;11.58;100.00;97826.06;4966957;28;20881;-63
2022/11/02 08:40:24;;;;;;;7.10;6.50;;;;;;;12.52;100.00;97816.28;4945968;28;20228;-63
2022/11/02 08:42:57;;;;;;;8.77;6.97;;;;;;;11.94;100.00;97802.63;4963094;28;20231;-64
2022/11/02 08:45:25;;;;;;;6.87;6.37;;;;;;;11.07;100.00;97813.22;4924647;28;20486;-64
2022/11/02 08:47:54;;;;;;;7.17;6.33;;;;;;;10.80;100.00;97809.97;4966249;28;20234;-64
2022/11/02 08:50:23;;;;;;;7.23;6.60;;;;;;;10.71;100.00;97806.50;4954350;28;20201;-63
2022/11/02 08:52:52;;;;;;;7.50;6.77;;;;;;;10.43;100.00;97814.03;4964104;28;20292;-65
2022/11/02 08:55:20;;;;;;;8.07;7.23;;;;;;;10.30;100.00;97818.97;4950712;28;20478;-63
2022/11/02 08:57:49;;;;;;;7.93;7.13;;;;;;;10.20;100.00;97813.84;4956881;28;20232;-65
2022/11/02 09:00:21;;;;;;;8.63;7.93;;;;;;;10.26;100.00;97811.38;4922434;28;20217;-64
2022/11/02 09:02:59;;;;;;;7.57;6.87;;;;;;;10.26;100.00;97818.47;4940142;28;20341;-63
2022/11/02 09:05:28;;;;;;;9.57;8.40;;;;;;;10.09;100.00;97813.19;4960396;28;20807;-63
2022/11/02 09:07:58;;;;;;;9.83;9.00;;;;;;;10.25;100.00;97817.66;4943878;28;20241;-63
2022/11/02 09:10:27;;;;;;;9.53;8.53;;;;;;;10.34;100.00;97815.81;4946987;28;20212;-63
2022/11/02 09:12:56;;;;;;;12.03;10.70;;;;;;;10.30;100.00;97808.38;4963828;28;20823;-59
2022/11/02 09:15:25;;;;;;;10.30;9.40;;;;;;;10.45;100.00;97813.88;4911368;28;21582;-65
2022/11/02 09:17:54;;;;;;;9.97;8.97;;;;;;;10.44;100.00;97805.06;4965351;28;20228;-61
2022/11/02 09:20:22;;;;;;;9.23;8.43;;;;;;;10.62;100.00;97794.28;4939399;28;20418;-62
2022/11/02 09:22:50;;;;;;;9.63;8.70;;;;;;;10.77;100.00;97796.22;4944751;28;20224;-64
2022/11/02 09:25:19;;;;;;;8.43;7.63;;;;;;;10.96;100.00;97795.84;4962977;28;20220;-63
2022/11/02 09:27:51;;;;;;;9.50;8.67;;;;;;;10.87;100.00;97791.56;4922922;28;20931;-64
2022/11/02 09:30:23;;;;;;;9.47;7.97;;;;;;;11.08;100.00;97798.13;4929990;28;20226;-65
2022/11/02 09:32:56;;;;;;;8.80;8.10;;;;;;;10.95;100.00;97793.34;4958953;28;20219;-64
2022/11/02 09:35:25;;;;;;;9.20;8.30;;;;;;;10.91;100.00;97798.19;4940526;28;20389;-64
2022/11/02 09:37:54;;;;;;;9.30;8.40;;;;;;;11.07;100.00;97802.59;4940399;28;20232;-63
2022/11/02 09:40:23;;;;;;;13.00;11.80;;;;;;;11.17;100.00;97796.25;4963909;28;20576;-64
2022/11/02 09:43:00;;;;;;;13.40;11.93;;;;;;;11.28;100.00;97799.34;4941684;28;20216;-65
2022/11/02 09:45:29;;;;;;;11.10;9.00;;;;;;;11.44;100.00;97800.25;4923066;28;20248;-65
2022/11/02 09:48:03;;;;;;;9.90;9.00;;;;;;;11.36;100.00;97798.47;4961845;28;20545;-64
2022/11/02 09:50:49;;;;;;;9.87;8.93;;;;;;;11.38;100.00;97801.81;4938670;28;20213;-64
2022/11/02 09:53:21;;;;;;;9.70;8.70;;;;;;;11.60;100.00;97801.19;4946862;28;20216;-63
2022/11/02 09:55:52;;;;;;;9.20;8.40;;;;;;;12.06;100.00;97798.56;4961058;28;20223;-64
2022/11/02 09:58:24;;;;;;;11.07;9.97;;;;;;;12.05;100.00;97790.75;4944916;28;20988;-62
2022/11/02 10:00:54;;;;;;;9.90;8.47;;;;;;;12.36;100.00;97793.34;4922896;28;20247;-64
2022/11/02 10:03:36;;;;;;;9.50;7.77;;;;;;;12.72;100.00;97795.31;4965042;28;20236;-63
2022/11/02 10:06:08;;;;;;;8.37;7.37;;;;;;;12.73;100.00;97788.97;4949087;28;20409;-63
2022/11/02 10:08:42;;;;;;;7.20;6.50;;;;;;;13.19;100.00;97771.16;4945957;28;20400;-65
2022/11/02 10:11:23;;;;;;;7.47;6.77;;;;;;;13.16;100.00;97788.28;4964908;28;20209;-64
2022/11/02 10:13:54;;;;;;;8.87;7.33;;;;;;;13.29;100.00;97792.16;4939769;28;21732;-64
2022/11/02 10:16:26;;;;;;;7.30;6.60;;;;;;;13.61;100.00;97787.41;4919838;28;20252;-64
2022/11/02 10:18:56;;;;;;;5.30;4.83;;;;;;;13.94;100.00;97791.44;4959386;28;20345;-67
2022/11/02 10:21:27;;;;;;;4.20;3.80;;;;;;;14.12;98.87;97778.47;4913569;28;20270;-62
2022/11/02 10:23:56;;;;;;;4.47;3.50;;;;;;;14.47;93.71;97777.72;4963123;28;20220;-64
2022/11/02 10:26:28;;;;;;;5.43;3.43;;;;;;;14.58;88.78;97771.00;4935361;28;20420;-62
2022/11/02 10:28:58;;;;;;;3.00;2.53;;;;;;;14.52;87.47;97771.78;4962963;28;20581;-63
2022/11/02 10:31:29;;;;;;;2.43;2.07;;;;;;;14.12;78.60;97761.66;4944480;28;20780;-62
2022/11/02 10:34:05;;;;;;;3.87;2.00;;;;;;;13.99;76.50;97771.16;4946267;28;20269;-63
2022/11/02 10:36:41;;;;;;;5.07;2.27;;;;;;;14.17;76.38;97768.03;4917747;28;20247;-54
2022/11/02 10:39:20;;;;;;;1.80;1.70;;;;;;;14.32;75.88;97775.16;4958455;28;21802;-59
2022/11/02 10:42:02;;;;;;;4.87;2.27;;;;;;;14.40;74.29;97777.66;4960495;28;20945;-59
2022/11/02 10:44:41;;;;;;;5.07;2.23;;;;;;;14.15;73.87;97778.06;4961110;28;20232;-62
2022/11/02 10:47:14;;;;;;;5.40;2.33;;;;;;;14.22;74.56;97777.34;4941878;28;20331;-58
2022/11/02 10:50:16;;;;;;;2.90;1.87;;;;;;;14.06;75.22;97789.09;4940112;28;20243;-60
2022/11/02 10:52:46;;;;;;;2.27;1.70;;;;;;;13.58;75.58;97793.94;4911931;28;20223;-62
2022/11/02 10:55:21;;;;;;;3.67;1.87;;;;;;;13.35;78.20;97799.38;4963214;28;20460;-64
2022/11/02 10:57:50;;;;;;;1.83;1.70;;;;;;;13.07;80.32;97804.53;4960941;28;20368;-65
2022/11/02 11:00:27;;;;;;;1.93;1.83;;;;;;;12.86;81.92;97811.44;4965013;28;20209;-62
2022/11/02 11:03:07;;;;;;;2.93;2.00;;;;;;;12.73;83.74;97796.13;4931248;28;22169;-63
2022/11/02 11:05:39;;;;;;;1.33;1.30;;;;;;;12.81;83.94;97806.66;4959640;28;20446;-61
2022/11/02 11:08:20;;;;;;;3.83;1.60;;;;;;;12.80;84.38;97812.19;4919323;28;20772;-66
2022/11/02 11:10:48;;;;;;;3.00;1.53;;;;;;;13.01;83.98;97809.59;4962690;28;20794;-65
2022/11/02 11:13:22;;;;;;;3.60;1.80;;;;;;;13.36;82.56;97806.34;4961615;28;20698;-64
2022/11/02 11:16:10;;;;;;;1.60;1.50;;;;;;;13.39;81.46;97798.00;4962472;28;20204;-63
2022/11/02 11:18:50;;;;;;;2.63;2.07;;;;;;;13.71;80.26;97811.91;4932595;28;21169;-64
2022/11/02 11:21:40;;;;;;;2.80;1.70;;;;;;;13.43;78.98;97796.63;4959213;28;21204;-62
2022/11/02 11:24:20;;;;;;;2.93;1.47;;;;;;;13.38;79.62;97801.69;4914541;28;20228;-63
2022/11/02 11:27:04;;;;;;;3.77;1.60;;;;;;;13.63;78.36;97798.69;4963950;28;20199;-63
2022/11/02 11:29:33;;;;;;;4.20;1.97;;;;;;;13.58;78.27;97798.44;4961708;28;20473;-64
2022/11/02 11:32:15;;;;;;;7.57;2.57;;;;;;;13.95;77.41;97799.22;4957665;28;20209;-64
2022/11/02 11:34:46;;;;;;;4.43;2.23;;;;;;;13.92;77.02;97793.47;4963147;28;20217;-62
2022/11/02 11:37:17;;;;;;;2.73;1.57;;;;;;;13.99;77.97;97789.00;4916954;28;21516;-64
2022/11/02 11:39:46;;;;;;;4.43;2.07;;;;;;;13.79;76.69;97796.81;4961297;28;20385;-63
2022/11/02 11:42:23;;;;;;;2.53;1.47;;;;;;;13.93;77.46;97789.78;4958920;28;20392;-63
2022/11/02 11:44:57;;;;;;;3.87;1.90;;;;;;;14.00;77.37;97772.81;4963458;28;20690;-64
2022/11/02 11:47:30;;;;;;;3.23;1.90;;;;;;;13.61;77.59;97774.09;4960771;28;20795;-65
2022/11/02 11:50:02;;;;;;;3.70;2.03;;;;;;;13.72;78.93;97772.78;4942874;28;20972;-64
2022/11/02 11:52:42;;;;;;;1.93;1.70;;;;;;;13.59;78.23;97779.63;4923528;28;20239;-63
2022/11/02 11:55:22;;;;;;;2.37;1.60;;;;;;;13.44;77.69;97773.50;4963379;28;20315;-64
2022/11/02 11:58:07;;;;;;;3.77;1.97;;;;;;;13.17;77.38;97766.00;4966080;28;20426;-65